Flugplatz Schmidgaden

Für EDPQ sind keine METAR/TAF Berichte vorhanden.
Es werden die Flugwettermeldungen vom Flugplatz Hohenfels Army Air Field in 30 km Entfernung angezeigt.

Bericht für ETIH

vom 25.10. um 15:56 UTC

kein Wind

Sichtweite 10 km oder mehr

keine Wolken

Temperatur 7.7°C

Taupunkt 4.1°C

Luftfeuchtigkeit 78%

Luftdruck 1021 hPa

ETIH 251556Z AUTO 00000KT 9999 CLR 08/04 A3015 RMK AO2 SLP232 T00770041
Keine Prognose (TAF) verfügbar.
Impressum